This is the latest recevied weather packets stored in our database for station/object W6ORV. If no packets are shown the sender has not sent any weather packets the latest 10 day(s).
| Time | Temp. | Humidity | Pressure | Rain* | Wind** | Luminosity | Snow |
|---|---|---|---|---|---|---|---|
| 1777939529 | 16.67° C | 58% | 4298.5 hPa | 0 mm | - | 332 W/m² | - |
| 1777939226 | 16.67° C | 57% | 4298.5 hPa | 0 mm | - | 221 W/m² | - |
| 1777938923 | 17.22° C | 57% | 4298.6 hPa | 0 mm | - | 219 W/m² | - |
| 1777938619 | 17.22° C | 54% | 4298.4 hPa | 0 mm | - | 219 W/m² | - |
| 1777938316 | 17.22° C | 53% | 4298.4 hPa | 0 mm | - | 229 W/m² | - |
| 1777938013 | 17.22° C | 54% | 4298.7 hPa | 0 mm | - | 216 W/m² | - |
| 1777937708 | 17.22° C | 54% | 4298.6 hPa | 0 mm | - | 223 W/m² | - |
| 1777937406 | 17.78° C | 54% | 4298.4 hPa | 0 mm | - | 227 W/m² | - |
| 1777937103 | 17.78° C | 54% | 4298.7 hPa | 0 mm | - | 252 W/m² | - |
| 1777936800 | 17.78° C | 53% | 4298.6 hPa | 0 mm | - | 329 W/m² | - |
| 1777936496 | 18.33° C | 53% | 4298.6 hPa | 0 mm | - | 336 W/m² | - |
| 1777936193 | 17.78° C | 54% | 4298.6 hPa | 0 mm | - | 370 W/m² | - |
| 1777935889 | 17.78° C | 53% | 4298.7 hPa | 0 mm | - | 359 W/m² | - |
| 1777935589 | 17.22° C | 56% | 4298.6 hPa | 0 mm | - | 398 W/m² | - |
| 1777935285 | 16.67° C | 57% | 4298.9 hPa | 0 mm | - | 379 W/m² | - |
| 1777934982 | 17.78° C | 55% | 4298.9 hPa | 0 mm | - | 357 W/m² | - |
| 1777934678 | 18.33° C | 53% | 4298.9 hPa | 0 mm | - | 366 W/m² | - |
| 1777934376 | 18.33° C | 53% | 4299.2 hPa | 0 mm | - | 419 W/m² | - |
| 1777934071 | 18.89° C | 53% | 4298.9 hPa | 0 mm | - | 941 W/m² | - |
| 1777933767 | 18.33° C | 52% | 4299.1 hPa | 0 mm | - | 614 W/m² | - |
| 1777933465 | 18.33° C | 52% | 4299.3 hPa | 0 mm | - | 452 W/m² | - |
| 1777933163 | 17.22° C | 54% | 4299.4 hPa | 0 mm | - | 580 W/m² | - |
| 1777932859 | 17.78° C | 53% | 4299.5 hPa | 0 mm | - | 268 W/m² | - |
| 1777932556 | 17.78° C | 54% | 4299.5 hPa | 0 mm | - | 282 W/m² | - |
| 1777932253 | 17.22° C | 54% | 4299.5 hPa | 0 mm | - | 267 W/m² | - |
* Rain latest hour (hover to see other rain measurements)
** Current wind speed in m/s (hover to see current wind gust speed)